Cassopolis, Michigan
Current Conditions -  °F | °C
As of 3:55 PM on Tuesday 21 Oct 2014 (Local Time) from KHAI Reporting Station
Overcast Overcast  
Wind Chill: 46°   Ceiling: 3000
Heat Index: 49°   Visibility: 10mi
Dew Point: 41°   Wind: 7mph
Humidity: 73%   Direction: 360°N
Pressure: 30.13"   Gusts: NA
Location:  41.91°N, 86.01°W
Report Text: KHAI 211955Z AUTO 36006KT 10SM SCT021 OVC030 10/05 A3013 RMK AO2 T00960050
Loading
Personal Weather Stations






























Interactive Weather Map
Tropical Storm Tracking
New forecast layout! Learn more

10-Day Weather Forecast

Advertisements
Track Severe Weather on mobile